TimeCDT,TemperatureF,Dew PointF,Humidity,Sea Level PressureIn,VisibilityMPH,Wind Direction,Wind SpeedMPH,Gust SpeedMPH,PrecipitationIn,Events,Conditions,WindDirDegrees,DateUTC
12:15 AM,46.4,46.4,100,29.72,5.0,NW,15.0,26.5,0.03,,Unknown,320,2013-04-19 05:15:00
12:35 AM,46.4,44.6,93,29.77,4.0,WNW,15.0,-,0.06,,Overcast,300,2013-04-19 05:35:00
12:55 AM,44.6,44.6,100,29.74,5.0,NW,17.3,27.6,0.08,,Overcast,320,2013-04-19 05:55:00
1:15 AM,44.6,42.8,93,29.77,10.0,WNW,13.8,19.6,0.01,,Unknown,300,2013-04-19 06:15:00
1:35 AM,44.6,41.0,87,29.78,10.0,NW,15.0,23.0,0.01,,Overcast,310,2013-04-19 06:35:00
1:55 AM,44.6,39.2,81,29.78,10.0,NW,16.1,21.9,0.01,,Overcast,320,2013-04-19 06:55:00
2:15 AM,42.8,37.4,81,29.77,10.0,NW,13.8,20.7,N/A,,Overcast,320,2013-04-19 07:15:00
2:35 AM,42.8,39.2,87,29.79,10.0,WNW,12.7,-,N/A,,Overcast,300,2013-04-19 07:35:00
2:55 AM,42.8,37.4,81,29.80,10.0,WNW,13.8,19.6,N/A,,Overcast,290,2013-04-19 07:55:00
3:15 AM,42.8,35.6,76,29.80,10.0,WNW,18.4,-,N/A,,Overcast,300,2013-04-19 08:15:00
3:35 AM,42.8,35.6,76,29.82,10.0,West,12.7,18.4,N/A,,Overcast,280,2013-04-19 08:35:00
3:55 AM,42.8,35.6,76,29.82,10.0,WNW,10.4,18.4,N/A,,Overcast,290,2013-04-19 08:55:00
4:15 AM,41.0,35.6,81,29.83,10.0,WNW,11.5,-,N/A,,Overcast,290,2013-04-19 09:15:00
4:35 AM,42.8,33.8,70,29.83,10.0,WNW,10.4,-,N/A,,Overcast,290,2013-04-19 09:35:00
4:55 AM,41.0,35.6,81,29.83,10.0,WNW,10.4,18.4,N/A,,Overcast,290,2013-04-19 09:55:00
5:15 AM,41.0,33.8,76,29.84,10.0,WNW,13.8,18.4,N/A,,Overcast,290,2013-04-19 10:15:00
5:35 AM,41.0,32.0,70,29.85,10.0,WNW,13.8,21.9,N/A,,Overcast,300,2013-04-19 10:35:00
5:55 AM,41.0,32.0,70,29.86,10.0,WNW,13.8,-,N/A,,Overcast,290,2013-04-19 10:55:00
6:15 AM,41.0,32.0,70,29.87,10.0,WNW,9.2,19.6,N/A,,Overcast,290,2013-04-19 11:15:00
6:35 AM,41.0,32.0,70,29.89,10.0,WNW,11.5,16.1,N/A,,Overcast,290,2013-04-19 11:35:00
6:55 AM,41.0,32.0,70,29.91,10.0,West,9.2,20.7,N/A,,Overcast,280,2013-04-19 11:55:00
7:15 AM,41.0,32.0,70,29.92,10.0,West,10.4,-,N/A,,Overcast,280,2013-04-19 12:15:00
7:35 AM,41.0,32.0,70,29.92,10.0,West,8.1,-,N/A,,Overcast,270,2013-04-19 12:35:00
7:55 AM,41.0,32.0,70,29.92,10.0,West,12.7,-,N/A,,Overcast,260,2013-04-19 12:55:00
8:15 AM,41.0,32.0,70,29.92,10.0,West,12.7,19.6,N/A,,Overcast,270,2013-04-19 13:15:00
8:35 AM,41.0,32.0,70,29.93,10.0,West,10.4,19.6,N/A,,Overcast,270,2013-04-19 13:35:00
8:55 AM,41.0,32.0,70,29.93,10.0,West,15.0,19.6,N/A,,Overcast,260,2013-04-19 13:55:00
9:15 AM,42.8,32.0,66,29.93,10.0,West,13.8,18.4,N/A,,Overcast,260,2013-04-19 14:15:00
9:35 AM,42.8,30.2,61,29.94,10.0,West,17.3,23.0,N/A,,Overcast,280,2013-04-19 14:35:00
9:55 AM,44.6,30.2,57,29.94,10.0,West,16.1,25.3,N/A,,Overcast,270,2013-04-19 14:55:00
10:15 AM,44.6,30.2,57,29.95,10.0,West,19.6,24.2,N/A,,Overcast,280,2013-04-19 15:15:00
10:35 AM,42.8,32.0,66,29.96,10.0,West,16.1,-,N/A,,Overcast,270,2013-04-19 15:35:00
10:55 AM,42.8,32.0,66,29.97,10.0,West,18.4,25.3,N/A,,Overcast,270,2013-04-19 15:55:00
11:15 AM,42.8,30.2,61,29.98,10.0,West,12.7,21.9,N/A,,Overcast,280,2013-04-19 16:15:00
11:35 AM,42.8,30.2,61,29.98,10.0,West,15.0,23.0,N/A,,Overcast,260,2013-04-19 16:35:00
11:55 AM,42.8,30.2,61,29.99,10.0,West,17.3,21.9,N/A,,Overcast,260,2013-04-19 16:55:00
12:15 PM,44.6,32.0,61,29.99,10.0,West,15.0,19.6,N/A,,Overcast,260,2013-04-19 17:15:00
12:35 PM,42.8,30.2,61,29.99,10.0,West,17.3,23.0,N/A,,Overcast,280,2013-04-19 17:35:00
12:55 PM,42.8,32.0,66,29.98,10.0,West,11.5,16.1,N/A,,Overcast,260,2013-04-19 17:55:00
1:15 PM,44.6,32.0,61,29.98,10.0,West,12.7,-,N/A,,Overcast,270,2013-04-19 18:15:00
1:35 PM,44.6,30.2,57,29.98,10.0,West,16.1,21.9,N/A,,Overcast,260,2013-04-19 18:35:00
1:55 PM,44.6,32.0,61,29.98,10.0,WSW,17.3,21.9,N/A,,Overcast,250,2013-04-19 18:55:00
2:15 PM,44.6,32.0,61,29.99,10.0,WSW,13.8,19.6,N/A,,Overcast,250,2013-04-19 19:15:00
2:35 PM,44.6,32.0,61,29.99,10.0,West,15.0,19.6,N/A,,Overcast,270,2013-04-19 19:35:00
2:55 PM,44.6,32.0,61,29.99,10.0,West,11.5,24.2,N/A,,Overcast,270,2013-04-19 19:55:00
3:15 PM,44.6,30.2,57,29.99,10.0,West,15.0,25.3,N/A,,Overcast,270,2013-04-19 20:15:00
3:35 PM,44.6,30.2,57,30.00,10.0,West,15.0,20.7,N/A,,Overcast,260,2013-04-19 20:35:00
3:55 PM,44.6,32.0,61,30.00,10.0,West,19.6,23.0,N/A,,Overcast,260,2013-04-19 20:55:00
4:15 PM,44.6,32.0,61,30.01,10.0,WSW,13.8,24.2,N/A,,Overcast,250,2013-04-19 21:15:00
4:35 PM,46.4,32.0,57,30.01,10.0,West,13.8,23.0,N/A,,Overcast,260,2013-04-19 21:35:00
4:55 PM,46.4,32.0,57,30.01,10.0,West,16.1,21.9,N/A,,Overcast,260,2013-04-19 21:55:00
5:15 PM,46.4,32.0,57,30.02,10.0,WSW,15.0,20.7,N/A,,Mostly Cloudy,250,2013-04-19 22:15:00
5:35 PM,46.4,32.0,57,30.02,10.0,West,11.5,24.2,N/A,,Mostly Cloudy,270,2013-04-19 22:35:00
5:55 PM,46.4,30.2,53,30.02,10.0,West,16.1,21.9,N/A,,Mostly Cloudy,260,2013-04-19 22:55:00
6:15 PM,46.4,32.0,57,30.03,10.0,West,11.5,-,N/A,,Partly Cloudy,260,2013-04-19 23:15:00
6:35 PM,46.4,30.2,53,30.02,10.0,WSW,9.2,17.3,N/A,,Clear,250,2013-04-19 23:35:00
6:55 PM,46.4,32.0,57,30.02,10.0,WSW,6.9,-,N/A,,Clear,250,2013-04-19 23:55:00
7:15 PM,44.6,32.0,61,30.03,10.0,SW,6.9,-,N/A,,Clear,230,2013-04-20 00:15:00
7:35 PM,42.8,32.0,66,30.04,10.0,SSW,4.6,-,N/A,,Clear,200,2013-04-20 00:35:00
7:55 PM,41.0,32.0,70,30.05,10.0,South,3.5,-,N/A,,Clear,190,2013-04-20 00:55:00
8:15 PM,41.0,32.0,70,30.05,10.0,South,4.6,-,N/A,,Clear,180,2013-04-20 01:15:00
8:35 PM,41.0,32.0,70,30.06,10.0,South,6.9,-,N/A,,Clear,180,2013-04-20 01:35:00
8:55 PM,41.0,32.0,70,30.06,10.0,South,6.9,-,N/A,,Mostly Cloudy,180,2013-04-20 01:55:00
9:15 PM,41.0,32.0,70,30.07,10.0,South,5.8,-,N/A,,Overcast,180,2013-04-20 02:15:00
9:35 PM,41.0,32.0,70,30.07,10.0,South,5.8,-,N/A,,Overcast,190,2013-04-20 02:35:00
9:55 PM,41.0,32.0,70,30.07,10.0,South,8.1,-,N/A,,Scattered Clouds,180,2013-04-20 02:55:00
10:15 PM,41.0,32.0,70,30.08,10.0,South,5.8,-,N/A,,Partly Cloudy,180,2013-04-20 03:15:00
10:35 PM,41.0,32.0,70,30.08,10.0,SSW,4.6,-,N/A,,Clear,200,2013-04-20 03:35:00
10:55 PM,39.2,32.0,75,30.09,10.0,West,3.5,-,N/A,,Clear,270,2013-04-20 03:55:00
11:15 PM,39.2,32.0,75,30.09,10.0,SW,4.6,-,N/A,,Clear,230,2013-04-20 04:15:00
11:35 PM,41.0,32.0,70,30.10,10.0,SW,5.8,-,N/A,,Clear,230,2013-04-20 04:35:00
11:55 PM,39.2,32.0,75,30.10,10.0,WSW,6.9,-,N/A,,Clear,240,2013-04-20 04:55:00